sensor_id;sensor_type;location;lat;lon;timestamp;pressure;altitude;pressure_sealevel;temperature;humidity
74437;BME280;62868;52.360;30.424;2023-03-08T00:04:05;1012.5;;;0.3;62.4
74437;BME280;62868;52.360;30.424;2023-03-08T00:08:37;1012.4;;;0.4;62.4
74437;BME280;62868;52.360;30.424;2023-03-08T00:14:17;1012.2;;;0.6;62.4
74437;BME280;62868;52.360;30.424;2023-03-08T00:19:19;1012.2;;;0.7;62.3
74437;BME280;62868;52.360;30.424;2023-03-08T00:23:25;1012.1;;;0.8;62.3
74437;BME280;62868;52.360;30.424;2023-03-08T00:29:05;1012.1;;;1;62.2
74437;BME280;62868;52.360;30.424;2023-03-08T00:33:50;1012;;;1.1;62.1
74437;BME280;62868;52.360;30.424;2023-03-08T00:39:19;1012;;;1.2;62.1
74437;BME280;62868;52.360;30.424;2023-03-08T00:43:25;1012;;;1.3;62.1
74437;BME280;62868;52.360;30.424;2023-03-08T00:48:25;1012;;;1.4;62.1
74437;BME280;62868;52.360;30.424;2023-03-08T00:54:07;1011.9;;;1.5;62
74437;BME280;62868;52.360;30.424;2023-03-08T00:58:38;1011.8;;;1.6;62
74437;BME280;62868;52.360;30.424;2023-03-08T01:04:19;1011.7;;;1.7;62
74437;BME280;62868;52.360;30.424;2023-03-08T01:09:19;1011.6;;;1.8;61.9
74437;BME280;62868;52.360;30.424;2023-03-08T01:13:35;1011.5;;;1.9;61.8
74437;BME280;62868;52.360;30.424;2023-03-08T01:19:08;1011.5;;;1.9;61.8
74437;BME280;62868;52.360;30.424;2023-03-08T01:23:37;1011.4;;;2;61.7
74437;BME280;62868;52.360;30.424;2023-03-08T01:29:19;1011.4;;;2.1;61.7
74437;BME280;62868;52.360;30.424;2023-03-08T01:33:37;1011.3;;;2.2;61.6
74437;BME280;62868;52.360;30.424;2023-03-08T01:38:39;1011.2;;;2.3;61.6
74437;BME280;62868;52.360;30.424;2023-03-08T01:44:05;1011.1;;;2.3;61.6
74437;BME280;62868;52.360;30.424;2023-03-08T01:48:40;1011;;;2.4;61.6
74437;BME280;62868;52.360;30.424;2023-03-08T01:54:20;1010.9;;;2.4;61.5
74437;BME280;62868;52.360;30.424;2023-03-08T01:58:51;1010.8;;;2.4;61.5
74437;BME280;62868;52.360;30.424;2023-03-08T02:03:25;1010.7;;;2.5;61.4
74437;BME280;62868;52.360;30.424;2023-03-08T02:09:05;1010.6;;;2.5;61.4
74437;BME280;62868;52.360;30.424;2023-03-08T02:13:37;1010.6;;;2.5;61.4
74437;BME280;62868;52.360;30.424;2023-03-08T02:19:07;1010.5;;;2.6;61.4
74437;BME280;62868;52.360;30.424;2023-03-08T02:23:51;1010.4;;;2.6;61.4
74437;BME280;62868;52.360;30.424;2023-03-08T02:28:39;1010.4;;;2.6;61.4
74437;BME280;62868;52.360;30.424;2023-03-08T02:34:17;1010.4;;;2.6;61.3
74437;BME280;62868;52.360;30.424;2023-03-08T02:38:39;1010.5;;;2.6;61.3
74437;BME280;62868;52.360;30.424;2023-03-08T02:44:03;1010.4;;;2.6;61.3
74437;BME280;62868;52.360;30.424;2023-03-08T02:48:25;1010.4;;;2.6;61.3
74437;BME280;62868;52.360;30.424;2023-03-08T02:54:17;1010.4;;;2.6;61.3
74437;BME280;62868;52.360;30.424;2023-03-08T02:59:17;1010.3;;;2.7;61.3
74437;BME280;62868;52.360;30.424;2023-03-08T03:03:25;1010.3;;;2.7;61.4
74437;BME280;62868;52.360;30.424;2023-03-08T03:09:04;1010.2;;;2.7;61.4
74437;BME280;62868;52.360;30.424;2023-03-08T03:13:52;1010.2;;;2.8;61.3
74437;BME280;62868;52.360;30.424;2023-03-08T03:19:01;1010.2;;;2.9;61.2
74437;BME280;62868;52.360;30.424;2023-03-08T03:24:17;1010.1;;;2.9;61.2
74437;BME280;62868;52.360;30.424;2023-03-08T03:28:37;1010;;;3;61.2
74437;BME280;62868;52.360;30.424;2023-03-08T03:34:03;1010;;;3.1;61.2
74437;BME280;62868;52.360;30.424;2023-03-08T03:38:53;1009.9;;;3.1;61.1
74437;BME280;62868;52.360;30.424;2023-03-08T03:44:03;1009.8;;;3.2;61.1
74437;BME280;62868;52.360;30.424;2023-03-08T03:49:05;1009.8;;;3.3;61
74437;BME280;62868;52.360;30.424;2023-03-08T03:53:26;1009.8;;;3.3;60.9
74437;BME280;62868;52.360;30.424;2023-03-08T03:59:17;1009.7;;;3.4;60.8
74437;BME280;62868;52.360;30.424;2023-03-08T04:03:37;1009.7;;;3.4;60.8
74437;BME280;62868;52.360;30.424;2023-03-08T04:09:04;1009.6;;;3.4;60.7
74437;BME280;62868;52.360;30.424;2023-03-08T04:14:19;1009.6;;;3.4;60.7
74437;BME280;62868;52.360;30.424;2023-03-08T04:18:37;1009.5;;;3.5;60.6
74437;BME280;62868;52.360;30.424;2023-03-08T04:23:53;1009.5;;;3.5;60.6
74437;BME280;62868;52.360;30.424;2023-03-08T04:28:51;1009.5;;;3.5;60.5
74437;BME280;62868;52.360;30.424;2023-03-08T04:33:47;1009.5;;;3.5;60.5
74437;BME280;62868;52.360;30.424;2023-03-08T04:39:17;1009.5;;;3.5;60.5
74437;BME280;62868;52.360;30.424;2023-03-08T04:43:40;1009.4;;;3.6;60.4
74437;BME280;62868;52.360;30.424;2023-03-08T04:49:03;1009.3;;;3.6;60.3
74437;BME280;62868;52.360;30.424;2023-03-08T04:53:51;1009.3;;;3.6;60.3
74437;BME280;62868;52.360;30.424;2023-03-08T04:59:05;1009.3;;;3.7;60.2
74437;BME280;62868;52.360;30.424;2023-03-08T05:04:05;1009.3;;;3.8;60.2
74437;BME280;62868;52.360;30.424;2023-03-08T05:08:37;1009.3;;;3.8;60.1
74437;BME280;62868;52.360;30.424;2023-03-08T05:14:01;1009.4;;;3.8;60.1
74437;BME280;62868;52.360;30.424;2023-03-08T05:18:25;1009.4;;;3.9;60
74437;BME280;62868;52.360;30.424;2023-03-08T05:23:51;1009.4;;;3.9;60
74437;BME280;62868;52.360;30.424;2023-03-08T05:29:17;1009.5;;;4;59.9
74437;BME280;62868;52.360;30.424;2023-03-08T05:33:25;1009.6;;;4;59.8
74437;BME280;62868;52.360;30.424;2023-03-08T05:38:53;1009.5;;;4;59.8
74437;BME280;62868;52.360;30.424;2023-03-08T05:44:05;1009.4;;;4.1;59.7
74437;BME280;62868;52.360;30.424;2023-03-08T05:48:53;1009.4;;;4.2;59.7
74437;BME280;62868;52.360;30.424;2023-03-08T05:54:17;1009.3;;;4.2;59.6
74437;BME280;62868;52.360;30.424;2023-03-08T05:58:25;1009.3;;;4.3;59.6
74437;BME280;62868;52.360;30.424;2023-03-08T06:04:03;1009.3;;;4.4;59.6
74437;BME280;62868;52.360;30.424;2023-03-08T06:08:25;1009.3;;;4.4;59.6
74437;BME280;62868;52.360;30.424;2023-03-08T06:14:15;1009.2;;;4.5;59.5
74437;BME280;62868;52.360;30.424;2023-03-08T06:18:51;1009.1;;;4.6;59.5
74437;BME280;62868;52.360;30.424;2023-03-08T06:23:37;1009;;;4.6;59.6
74437;BME280;62868;52.360;30.424;2023-03-08T06:29:17;1008.9;;;4.6;59.6
74437;BME280;62868;52.360;30.424;2023-03-08T06:33:51;1008.8;;;4.7;59.6
74437;BME280;62868;52.360;30.424;2023-03-08T06:39:03;1008.9;;;4.7;59.6
74437;BME280;62868;52.360;30.424;2023-03-08T06:44:15;1009;;;4.8;59.5
74437;BME280;62868;52.360;30.424;2023-03-08T06:48:35;1009;;;4.8;59.5
74437;BME280;62868;52.360;30.424;2023-03-08T06:54:01;1009;;;4.9;59.3
74437;BME280;62868;52.360;30.424;2023-03-08T06:58:51;1009;;;5;59.2
74437;BME280;62868;52.360;30.424;2023-03-08T07:04:03;1009;;;5;59.2
74437;BME280;62868;52.360;30.424;2023-03-08T07:09:15;1008.9;;;5;59.3
74437;BME280;62868;52.360;30.424;2023-03-08T07:13:26;1008.8;;;5;59.2
74437;BME280;62868;52.360;30.424;2023-03-08T07:19:03;1008.8;;;5;59.2
74437;BME280;62868;52.360;30.424;2023-03-08T07:23:51;1008.8;;;5.1;59.1
74437;BME280;62868;52.360;30.424;2023-03-08T07:29:03;1008.8;;;5.3;58.9
74437;BME280;62868;52.360;30.424;2023-03-08T07:34:17;1008.8;;;5.3;58.8
74437;BME280;62868;52.360;30.424;2023-03-08T07:38:37;1008.8;;;5.4;58.9
74437;BME280;62868;52.360;30.424;2023-03-08T07:44:15;1008.9;;;5.5;58.8
74437;BME280;62868;52.360;30.424;2023-03-08T07:48:51;1008.8;;;5.6;58.6
74437;BME280;62868;52.360;30.424;2023-03-08T07:54:03;1008.8;;;5.8;58.5
74437;BME280;62868;52.360;30.424;2023-03-08T07:59:17;1008.8;;;5.8;58.5
74437;BME280;62868;52.360;30.424;2023-03-08T08:03:27;1008.7;;;5.8;58.5
74437;BME280;62868;52.360;30.424;2023-03-08T08:09:01;1008.6;;;5.7;58.6
74437;BME280;62868;52.360;30.424;2023-03-08T08:13:51;1008.8;;;5.8;58.5
74437;BME280;62868;52.360;30.424;2023-03-08T08:19:15;1008.7;;;5.9;58.4
74437;BME280;62868;52.360;30.424;2023-03-08T08:24:17;1008.7;;;6.1;58.3
74437;BME280;62868;52.360;30.424;2023-03-08T08:28:36;1008.6;;;6.2;58.2
74437;BME280;62868;52.360;30.424;2023-03-08T08:34:03;1008.6;;;6.4;58.1
74437;BME280;62868;52.360;30.424;2023-03-08T08:38:51;1008.6;;;6.5;58
74437;BME280;62868;52.360;30.424;2023-03-08T08:44:01;1008.5;;;6.6;58
74437;BME280;62868;52.360;30.424;2023-03-08T08:49:17;1008.5;;;6.6;58
74437;BME280;62868;52.360;30.424;2023-03-08T08:53:39;1008.4;;;6.6;58.1
74437;BME280;62868;52.360;30.424;2023-03-08T08:59:02;1008.4;;;6.7;58
74437;BME280;62868;52.360;30.424;2023-03-08T09:04:05;1008.4;;;6.7;58.1
74437;BME280;62868;52.360;30.424;2023-03-08T09:08:27;1008.4;;;6.6;58.3
74437;BME280;62868;52.360;30.424;2023-03-08T09:14:17;1008.4;;;6.6;58.4
74437;BME280;62868;52.360;30.424;2023-03-08T09:18:39;1008.4;;;6.6;58.4
74437;BME280;62868;52.360;30.424;2023-03-08T09:23:51;1008.4;;;6.5;58.6
74437;BME280;62868;52.360;30.424;2023-03-08T09:29:05;1008.3;;;6.4;58.7
74437;BME280;62868;52.360;30.424;2023-03-08T09:34:04;1008.3;;;6.4;58.9
74437;BME280;62868;52.360;30.424;2023-03-08T09:39:17;1008.2;;;6.2;59.2
74437;BME280;62868;52.360;30.424;2023-03-08T09:43:42;1008.2;;;6.1;59.4
74437;BME280;62868;52.360;30.424;2023-03-08T09:48:51;1008.2;;;6.2;59.4
74437;BME280;62868;52.360;30.424;2023-03-08T09:53:38;1008.2;;;6.4;59.3
74437;BME280;62868;52.360;30.424;2023-03-08T09:59:19;1008.2;;;6.4;59.4
74437;BME280;62868;52.360;30.424;2023-03-08T10:03:55;1008.2;;;6.4;59.6
74437;BME280;62868;52.360;30.424;2023-03-08T10:08:52;1008.2;;;6.5;59.6
74437;BME280;62868;52.360;30.424;2023-03-08T10:13:53;1008.1;;;6.8;59.4
74437;BME280;62868;52.360;30.424;2023-03-08T10:18:54;1008;;;7.3;59.1
74437;BME280;62868;52.360;30.424;2023-03-08T10:24:06;1008;;;7.9;58.5
74437;BME280;62868;52.360;30.424;2023-03-08T10:28:51;1008;;;8;58.6
74437;BME280;62868;52.360;30.424;2023-03-08T10:33:37;1008;;;8;58.8
74437;BME280;62868;52.360;30.424;2023-03-08T10:38:37;1007.9;;;8;58.9
74437;BME280;62868;52.360;30.424;2023-03-08T10:43:54;1007.9;;;8;58.9
74437;BME280;62868;52.360;30.424;2023-03-08T10:49:16;1007.9;;;7.9;59
74437;BME280;62868;52.360;30.424;2023-03-08T10:53:25;1007.9;;;7.8;59.2
74437;BME280;62868;52.360;30.424;2023-03-08T10:58:27;1007.9;;;7.5;59.5
74437;BME280;62868;52.360;30.424;2023-03-08T11:03:26;1007.9;;;7.5;59.6
74437;BME280;62868;52.360;30.424;2023-03-08T11:09:04;1007.8;;;7.5;59.6
74437;BME280;62868;52.360;30.424;2023-03-08T11:14:17;1007.9;;;7.5;59.7
74437;BME280;62868;52.360;30.424;2023-03-08T11:18:41;1007.9;;;7.4;59.8
74437;BME280;62868;52.360;30.424;2023-03-08T11:23:27;1008;;;7.2;60
74437;BME280;62868;52.360;30.424;2023-03-08T11:28:53;1008;;;7.1;60.1
74437;BME280;62868;52.360;30.424;2023-03-08T11:34:07;1008;;;7;60.2
74437;BME280;62868;52.360;30.424;2023-03-08T11:39:16;1008;;;6.9;60.4
74437;BME280;62868;52.360;30.424;2023-03-08T11:44:02;1008.1;;;6.8;60.5
74437;BME280;62868;52.360;30.424;2023-03-08T11:48:29;1008.1;;;6.7;60.5
74437;BME280;62868;52.360;30.424;2023-03-08T11:53:42;1008.1;;;6.7;60.4
74437;BME280;62868;52.360;30.424;2023-03-08T11:59:04;1008.1;;;6.8;60.4
74437;BME280;62868;52.360;30.424;2023-03-08T12:04:16;1008.1;;;6.8;60.3
74437;BME280;62868;52.360;30.424;2023-03-08T12:08:26;1008.2;;;6.8;60.4
74437;BME280;62868;52.360;30.424;2023-03-08T12:13:51;1008.1;;;6.7;60.6
74437;BME280;62868;52.360;30.424;2023-03-08T12:18:26;1008.1;;;6.7;60.5
74437;BME280;62868;52.360;30.424;2023-03-08T12:23:50;1008.1;;;6.8;60.5
74437;BME280;62868;52.360;30.424;2023-03-08T12:29:16;1008.3;;;7;60.4
74437;BME280;62868;52.360;30.424;2023-03-08T12:33:51;1008.3;;;6.9;60.5
74437;BME280;62868;52.360;30.424;2023-03-08T12:38:38;1008.3;;;6.9;60.5
74437;BME280;62868;52.360;30.424;2023-03-08T12:43:37;1008.3;;;7;60.4
74437;BME280;62868;52.360;30.424;2023-03-08T12:48:51;1008.4;;;7.1;60.3
74437;BME280;62868;52.360;30.424;2023-03-08T12:54:19;1008.3;;;7.1;60.3
74437;BME280;62868;52.360;30.424;2023-03-08T12:58:52;1008.2;;;7.2;60.2
74437;BME280;62868;52.360;30.424;2023-03-08T13:03:26;1008.1;;;7.4;60
74437;BME280;62868;52.360;30.424;2023-03-08T13:08:51;1008.1;;;7.6;59.8
74437;BME280;62868;52.360;30.424;2023-03-08T13:14:20;1008.1;;;7.8;59.6
74437;BME280;62868;52.360;30.424;2023-03-08T13:18:59;1008.1;;;8.2;59.2
74437;BME280;62868;52.360;30.424;2023-03-08T13:23:41;1008.1;;;8.3;59
74437;BME280;62868;52.360;30.424;2023-03-08T13:28:38;1008.1;;;8.1;59.2
74437;BME280;62868;52.360;30.424;2023-03-08T13:33:38;1008.1;;;8.1;59.2
74437;BME280;62868;52.360;30.424;2023-03-08T13:39:04;1008.1;;;8;59.2
74437;BME280;62868;52.360;30.424;2023-03-08T13:44:20;1008.1;;;7.8;59.3
74437;BME280;62868;52.360;30.424;2023-03-08T13:48:49;1008.2;;;7.7;59.4
74437;BME280;62868;52.360;30.424;2023-03-08T13:53:37;1008.4;;;7.4;59.7
74437;BME280;62868;52.360;30.424;2023-03-08T13:58:54;1008.9;;;7.2;59.9
74437;BME280;62868;52.360;30.424;2023-03-08T14:04:09;1008.9;;;6.7;60.2
74437;BME280;62868;52.360;30.424;2023-03-08T14:09:18;1009;;;6.4;60.3
74437;BME280;62868;52.360;30.424;2023-03-08T14:14:04;1009;;;6.3;60.2
74437;BME280;62868;52.360;30.424;2023-03-08T14:18:38;1008.9;;;6.2;60.2
74437;BME280;62868;52.360;30.424;2023-03-08T14:23:38;1008.8;;;6.1;60.2
74437;BME280;62868;52.360;30.424;2023-03-08T14:29:19;1008.8;;;6;60.3
74437;BME280;62868;52.360;30.424;2023-03-08T14:34:17;1008.7;;;5.9;60.3
74437;BME280;62868;52.360;30.424;2023-03-08T14:39:15;1008.7;;;5.8;60.3
74437;BME280;62868;52.360;30.424;2023-03-08T14:43:39;1008.8;;;5.6;60.4
74437;BME280;62868;52.360;30.424;2023-03-08T14:48:37;1009.1;;;5.3;60.6
74437;BME280;62868;52.360;30.424;2023-03-08T14:53:55;1009.2;;;5.1;60.7
74437;BME280;62868;52.360;30.424;2023-03-08T14:59:17;1009.2;;;4.9;60.8
74437;BME280;62868;52.360;30.424;2023-03-08T15:04:02;1009.1;;;4.9;60.9
74437;BME280;62868;52.360;30.424;2023-03-08T15:08:25;1009.1;;;4.9;60.9
74437;BME280;62868;52.360;30.424;2023-03-08T15:13:49;1009.1;;;4.9;60.9
74437;BME280;62868;52.360;30.424;2023-03-08T15:19:03;1009.2;;;4.7;61.1
74437;BME280;62868;52.360;30.424;2023-03-08T15:24:16;1009.3;;;4.6;61.2
74437;BME280;62868;52.360;30.424;2023-03-08T15:29:01;1009.4;;;4.4;61.3
74437;BME280;62868;52.360;30.424;2023-03-08T15:33:37;1009.4;;;4.3;61.5
74437;BME280;62868;52.360;30.424;2023-03-08T15:38:39;1009.5;;;4.1;61.6
74437;BME280;62868;52.360;30.424;2023-03-08T15:44:17;1009.5;;;3.9;61.8
74437;BME280;62868;52.360;30.424;2023-03-08T15:49:17;1009.6;;;3.8;62
74437;BME280;62868;52.360;30.424;2023-03-08T15:54:02;1009.6;;;3.7;62.1
74437;BME280;62868;52.360;30.424;2023-03-08T15:58:25;1009.7;;;3.6;62.2
74437;BME280;62868;52.360;30.424;2023-03-08T16:03:38;1009.8;;;3.6;62.3
74437;BME280;62868;52.360;30.424;2023-03-08T16:09:17;1010;;;3.6;62.4
74437;BME280;62868;52.360;30.424;2023-03-08T16:14:17;1010;;;3.5;62.4
74437;BME280;62868;52.360;30.424;2023-03-08T16:19:03;1010.1;;;3.4;62.6
74437;BME280;62868;52.360;30.424;2023-03-08T16:24:08;1010.3;;;3.2;62.8
74437;BME280;62868;52.360;30.424;2023-03-08T16:28:51;1010.4;;;3.1;62.9
74437;BME280;62868;52.360;30.424;2023-03-08T16:34:04;1010.4;;;3;63
74437;BME280;62868;52.360;30.424;2023-03-08T16:39:17;1010.6;;;2.8;63.1
74437;BME280;62868;52.360;30.424;2023-03-08T16:44:04;1010.6;;;2.7;63.2
74437;BME280;62868;52.360;30.424;2023-03-08T16:48:37;1010.7;;;2.7;63.3
74437;BME280;62868;52.360;30.424;2023-03-08T16:53:37;1010.8;;;2.6;63.3
74437;BME280;62868;52.360;30.424;2023-03-08T16:59:03;1010.9;;;2.5;63.4
74437;BME280;62868;52.360;30.424;2023-03-08T17:04:17;1010.9;;;2.4;63.5
74437;BME280;62868;52.360;30.424;2023-03-08T17:09:02;1011;;;2.3;63.6
74437;BME280;62868;52.360;30.424;2023-03-08T17:13:25;1011;;;2.3;63.6
74437;BME280;62868;52.360;30.424;2023-03-08T17:19:05;1011;;;2.2;63.6
74437;BME280;62868;52.360;30.424;2023-03-08T17:24:04;1011.1;;;2.2;63.7
74437;BME280;62868;52.360;30.424;2023-03-08T17:29:18;1011.1;;;2.2;63.8
74437;BME280;62868;52.360;30.424;2023-03-08T17:34:03;1011.1;;;2.2;63.8
74437;BME280;62868;52.360;30.424;2023-03-08T17:38:26;1011.1;;;2.1;63.8
74437;BME280;62868;52.360;30.424;2023-03-08T17:44:03;1011.1;;;2.1;63.9
74437;BME280;62868;52.360;30.424;2023-03-08T17:49:03;1011.1;;;2;64
74437;BME280;62868;52.360;30.424;2023-03-08T17:54:04;1011.2;;;2;64
74437;BME280;62868;52.360;30.424;2023-03-08T17:59:01;1011.2;;;1.9;64.2
74437;BME280;62868;52.360;30.424;2023-03-08T18:03:52;1011.1;;;1.9;64.2
74437;BME280;62868;52.360;30.424;2023-03-08T18:08:51;1011.1;;;1.9;64.3
74437;BME280;62868;52.360;30.424;2023-03-08T18:14:06;1011.1;;;1.9;64.5
74437;BME280;62868;52.360;30.424;2023-03-08T18:19:04;1011.2;;;1.9;64.4
74437;BME280;62868;52.360;30.424;2023-03-08T18:24:17;1011.2;;;1.9;64.4
74437;BME280;62868;52.360;30.424;2023-03-08T18:28:25;1011.2;;;1.9;64.5
74437;BME280;62868;52.360;30.424;2023-03-08T18:34:17;1011.2;;;1.9;64.5
74437;BME280;62868;52.360;30.424;2023-03-08T18:38:26;1011.2;;;1.8;64.6
74437;BME280;62868;52.360;30.424;2023-03-08T18:44:04;1011.3;;;1.8;64.7
74437;BME280;62868;52.360;30.424;2023-03-08T18:49:18;1011.3;;;1.7;64.7
74437;BME280;62868;52.360;30.424;2023-03-08T18:53:50;1011.4;;;1.7;64.8
74437;BME280;62868;52.360;30.424;2023-03-08T18:58:52;1011.4;;;1.7;64.8
74437;BME280;62868;52.360;30.424;2023-03-08T19:04:06;1011.5;;;1.6;64.8
74437;BME280;62868;52.360;30.424;2023-03-08T19:09:06;1011.5;;;1.7;64.9
74437;BME280;62868;52.360;30.424;2023-03-08T19:14:04;1011.6;;;1.6;64.9
74437;BME280;62868;52.360;30.424;2023-03-08T19:18:38;1011.6;;;1.5;65
74437;BME280;62868;52.360;30.424;2023-03-08T19:23:52;1011.7;;;1.5;65
74437;BME280;62868;52.360;30.424;2023-03-08T19:28:38;1011.7;;;1.5;65.1
74437;BME280;62868;52.360;30.424;2023-03-08T19:34:04;1011.7;;;1.4;65.1
74437;BME280;62868;52.360;30.424;2023-03-08T19:39:04;1011.7;;;1.4;65.2
74437;BME280;62868;52.360;30.424;2023-03-08T19:43:26;1011.7;;;1.4;65.3
74437;BME280;62868;52.360;30.424;2023-03-08T19:48:38;1011.8;;;1.4;65.3
74437;BME280;62868;52.360;30.424;2023-03-08T19:53:38;1011.8;;;1.3;65.3
74437;BME280;62868;52.360;30.424;2023-03-08T19:59:04;1011.8;;;1.3;65.4
74437;BME280;62868;52.360;30.424;2023-03-08T20:04:16;1011.8;;;1.3;65.4
74437;BME280;62868;52.360;30.424;2023-03-08T20:08:38;1011.9;;;1.3;65.5
74437;BME280;62868;52.360;30.424;2023-03-08T20:13:52;1011.9;;;1.3;65.5
74437;BME280;62868;52.360;30.424;2023-03-08T20:18:38;1011.8;;;1.2;65.6
74437;BME280;62868;52.360;30.424;2023-03-08T20:23:54;1011.8;;;1.2;65.6
74437;BME280;62868;52.360;30.424;2023-03-08T20:29:18;1011.8;;;1.2;65.7
74437;BME280;62868;52.360;30.424;2023-03-08T20:33:40;1011.8;;;1.2;65.7
74437;BME280;62868;52.360;30.424;2023-03-08T20:38:52;1011.7;;;1.2;65.7
74437;BME280;62868;52.360;30.424;2023-03-08T20:43:26;1011.6;;;1.2;65.7
74437;BME280;62868;52.360;30.424;2023-03-08T20:49:04;1011.5;;;1.2;65.7
74437;BME280;62868;52.360;30.424;2023-03-08T20:54:18;1011.6;;;1.2;65.8
74437;BME280;62868;52.360;30.424;2023-03-08T20:58:52;1011.6;;;1.2;65.8
74437;BME280;62868;52.360;30.424;2023-03-08T21:03:50;1011.5;;;1.2;65.8
74437;BME280;62868;52.360;30.424;2023-03-08T21:08:50;1011.5;;;1.2;65.8
74437;BME280;62868;52.360;30.424;2023-03-08T21:14:04;1011.5;;;1.2;65.8
74437;BME280;62868;52.360;30.424;2023-03-08T21:19:18;1011.5;;;1.2;65.8
74437;BME280;62868;52.360;30.424;2023-03-08T21:23:40;1011.5;;;1.1;65.8
74437;BME280;62868;52.360;30.424;2023-03-08T21:28:53;1011.4;;;1.2;65.8
74437;BME280;62868;52.360;30.424;2023-03-08T21:33:52;1011.4;;;1.1;65.8
74437;BME280;62868;52.360;30.424;2023-03-08T21:39:04;1011.4;;;1.1;65.8
74437;BME280;62868;52.360;30.424;2023-03-08T21:44:18;1011.4;;;1.1;65.8
74437;BME280;62868;52.360;30.424;2023-03-08T21:49:04;1011.4;;;1.1;65.8
74437;BME280;62868;52.360;30.424;2023-03-08T21:53:38;1011.4;;;1.1;65.8
74437;BME280;62868;52.360;30.424;2023-03-08T21:58:40;1011.3;;;1.1;65.8
74437;BME280;62868;52.360;30.424;2023-03-08T22:04:04;1011.4;;;1.1;65.8
74437;BME280;62868;52.360;30.424;2023-03-08T22:09:18;1011.5;;;1.1;65.8
74437;BME280;62868;52.360;30.424;2023-03-08T22:13:28;1011.5;;;1.1;65.8
74437;BME280;62868;52.360;30.424;2023-03-08T22:18:26;1011.5;;;1.1;65.7
74437;BME280;62868;52.360;30.424;2023-03-08T22:23:52;1011.5;;;1.1;65.8
74437;BME280;62868;52.360;30.424;2023-03-08T22:29:04;1011.6;;;1.2;65.8
74437;BME280;62868;52.360;30.424;2023-03-08T22:34:16;1011.5;;;1.3;65.6
74437;BME280;62868;52.360;30.424;2023-03-08T22:39:04;1011.4;;;1.5;65.6
74437;BME280;62868;52.360;30.424;2023-03-08T22:43:52;1011.4;;;1.6;65.5
74437;BME280;62868;52.360;30.424;2023-03-08T22:48:26;1011.4;;;1.7;65.4
74437;BME280;62868;52.360;30.424;2023-03-08T22:54:04;1011.4;;;1.8;65.3
74437;BME280;62868;52.360;30.424;2023-03-08T22:59:18;1011.4;;;1.9;65.3
74437;BME280;62868;52.360;30.424;2023-03-08T23:04:04;1011.3;;;2.1;65.2
74437;BME280;62868;52.360;30.424;2023-03-08T23:08:38;1011.3;;;2.2;65.2
74437;BME280;62868;52.360;30.424;2023-03-08T23:13:40;1011.2;;;2.3;65.2
74437;BME280;62868;52.360;30.424;2023-03-08T23:19:04;1011.2;;;2.4;65.2
74437;BME280;62868;52.360;30.424;2023-03-08T23:24:18;1011.2;;;2.4;65.2
74437;BME280;62868;52.360;30.424;2023-03-08T23:29:04;1011.2;;;2.4;65.1
74437;BME280;62868;52.360;30.424;2023-03-08T23:33:52;1011.1;;;2.4;65.1
74437;BME280;62868;52.360;30.424;2023-03-08T23:38:38;1011.1;;;2.4;65.1
74437;BME280;62868;52.360;30.424;2023-03-08T23:44:04;1011;;;2.4;65.1
74437;BME280;62868;52.360;30.424;2023-03-08T23:49:16;1010.8;;;2.4;65.1
74437;BME280;62868;52.360;30.424;2023-03-08T23:54:04;1010.6;;;2.4;65.1
74437;BME280;62868;52.360;30.424;2023-03-08T23:58:26;1010.6;;;2.5;65.1
